Thorndike, Maine
Current Conditions -  °F | °C
As of 11:15 AM on Sunday 23 Nov 2014 (Local Time) from KWVL Reporting Station
Overcast Overcast  
Wind Chill: 45°   Ceiling: 3600
Heat Index: 48°   Visibility: 10mi
Dew Point: 34°   Wind: 8mph
Humidity: 57%   Direction: 230°SW
Pressure: 30.03"   Gusts: NA
Location:  44.58°N, 69.28°W
Report Text: KWVL 231615Z 23007KT 10SM OVC036 09/01 A3003 RMK AO1
Loading
Personal Weather Stations






























Interactive Weather Map New forecast layout! Learn more

10-Day Weather Forecast

Advertisements
Track Severe Weather on mobile